createdAt,value
2023-06-02T00:00:10.891Z,0.00
2023-06-02T00:01:10.916Z,0.00
2023-06-02T00:02:10.919Z,0.00
2023-06-02T00:03:10.899Z,0.00
2023-06-02T00:04:10.879Z,0.00
2023-06-02T00:05:10.895Z,0.00
2023-06-02T00:06:10.891Z,0.00
2023-06-02T00:07:10.841Z,0.00
2023-06-02T00:08:10.830Z,0.00
2023-06-02T00:09:10.867Z,0.00
2023-06-02T00:10:10.816Z,0.00
2023-06-02T00:11:10.832Z,0.00
2023-06-02T00:12:10.795Z,0.00
2023-06-02T00:13:10.793Z,0.00
2023-06-02T00:14:10.791Z,0.00
2023-06-02T00:15:10.809Z,0.00
2023-06-02T00:16:10.809Z,0.00
2023-06-02T00:17:10.770Z,0.00
2023-06-02T00:18:10.759Z,0.00
2023-06-02T00:19:10.755Z,0.00
2023-06-02T00:20:10.802Z,0.00
2023-06-02T00:21:10.748Z,0.00
2023-06-02T00:22:10.725Z,0.00
2023-06-02T00:23:10.729Z,0.00
2023-06-02T00:24:10.779Z,0.00
2023-06-02T00:25:10.734Z,0.00
2023-06-02T00:26:10.711Z,0.00
2023-06-02T00:27:10.694Z,0.00
2023-06-02T00:28:10.689Z,0.00
2023-06-02T00:29:10.712Z,0.00
2023-06-02T00:30:10.698Z,0.00
2023-06-02T00:31:10.683Z,0.00
2023-06-02T00:32:10.652Z,0.00
2023-06-02T00:33:10.647Z,0.00
2023-06-02T00:34:10.663Z,0.00
2023-06-02T00:35:10.634Z,0.00
2023-06-02T00:36:10.942Z,0.00
2023-06-02T00:37:10.618Z,0.00
2023-06-02T00:38:10.628Z,0.00
2023-06-02T00:39:10.635Z,0.00
2023-06-02T00:40:10.621Z,0.00
2023-06-02T00:41:10.596Z,0.00
2023-06-02T00:42:10.588Z,0.00
2023-06-02T00:43:10.606Z,0.00
2023-06-02T00:44:10.591Z,0.00
2023-06-02T00:45:10.563Z,0.00
2023-06-02T00:46:10.814Z,0.00
2023-06-02T00:47:10.543Z,0.00
2023-06-02T00:48:10.559Z,0.00
2023-06-02T00:49:10.561Z,0.00
2023-06-02T00:50:10.529Z,0.00
2023-06-02T00:51:10.516Z,0.00
2023-06-02T00:52:10.539Z,0.00
2023-06-02T00:53:10.528Z,0.00
2023-06-02T00:54:10.549Z,0.00
2023-06-02T00:55:10.483Z,0.00
2023-06-02T00:56:10.482Z,0.00
2023-06-02T00:57:10.475Z,0.00
2023-06-02T00:58:10.510Z,0.00
2023-06-02T00:59:10.453Z,0.00
2023-06-02T01:00:10.447Z,0.00
2023-06-02T01:01:10.476Z,0.00
2023-06-02T01:02:10.452Z,0.00
2023-06-02T01:03:10.470Z,0.00
2023-06-02T01:04:10.413Z,0.00
2023-06-02T01:05:10.418Z,0.00
2023-06-02T01:06:10.399Z,0.00
2023-06-02T01:07:10.425Z,0.00
2023-06-02T01:08:10.381Z,0.00
2023-06-02T01:09:10.380Z,0.00
2023-06-02T01:10:10.376Z,0.00
2023-06-02T01:11:10.369Z,0.00
2023-06-02T01:12:10.509Z,0.00
2023-06-02T01:13:10.363Z,0.00
2023-06-02T01:14:10.359Z,0.00
2023-06-02T01:15:10.350Z,0.00
2023-06-02T01:16:10.365Z,0.00
2023-06-02T01:17:10.339Z,0.00
2023-06-02T01:18:10.305Z,0.00
2023-06-02T01:19:10.305Z,0.00
2023-06-02T01:20:10.294Z,0.00
2023-06-02T01:21:10.313Z,0.00
2023-06-02T01:22:10.286Z,0.00
2023-06-02T01:23:10.269Z,0.00
2023-06-02T01:24:10.264Z,0.00
2023-06-02T01:25:10.256Z,0.00
2023-06-02T01:26:10.803Z,0.00
2023-06-02T01:27:10.236Z,0.00
2023-06-02T01:28:10.225Z,0.00
2023-06-02T01:29:10.217Z,0.00
2023-06-02T01:30:10.234Z,0.00
2023-06-02T01:31:10.228Z,0.00
2023-06-02T01:32:10.255Z,0.00
2023-06-02T01:33:10.266Z,0.00
2023-06-02T01:34:10.182Z,0.00
2023-06-02T01:35:10.202Z,0.00
2023-06-02T01:36:10.162Z,0.00
2023-06-02T01:37:10.154Z,0.00
2023-06-02T01:38:10.153Z,0.00
2023-06-02T01:39:10.140Z,0.00
2023-06-02T01:40:10.154Z,0.00
2023-06-02T01:41:10.129Z,0.00
2023-06-02T01:42:10.118Z,0.00
2023-06-02T01:43:10.113Z,0.00
2023-06-02T01:44:10.128Z,0.00
2023-06-02T01:45:10.122Z,0.00
2023-06-02T01:46:10.101Z,0.00
2023-06-02T01:47:10.077Z,0.00
2023-06-02T01:48:10.075Z,0.00
2023-06-02T01:49:10.088Z,0.00
2023-06-02T01:50:10.060Z,0.00
2023-06-02T01:51:10.050Z,0.00
2023-06-02T01:52:10.040Z,0.00
2023-06-02T01:53:10.034Z,0.00
2023-06-02T01:54:10.052Z,0.00
2023-06-02T01:55:10.021Z,0.00
2023-06-02T01:56:10.008Z,0.00
2023-06-02T01:57:10.006Z,0.00
2023-06-02T01:58:09.983Z,0.00
2023-06-02T01:59:11.011Z,0.00
2023-06-02T02:00:09.971Z,0.00
2023-06-02T02:01:10.000Z,0.00
2023-06-02T02:02:09.961Z,0.00
2023-06-02T02:03:10.037Z,0.00
2023-06-02T02:04:09.965Z,0.00
2023-06-02T02:05:09.929Z,0.00
2023-06-02T02:06:10.937Z,0.00
2023-06-02T02:07:09.919Z,0.00
2023-06-02T02:08:09.935Z,0.00
2023-06-02T02:09:09.899Z,0.00
2023-06-02T02:10:09.896Z,0.00
2023-06-02T02:11:09.884Z,0.00
2023-06-02T02:12:09.924Z,0.00
2023-06-02T02:13:09.905Z,0.00
2023-06-02T02:14:09.870Z,0.00
2023-06-02T02:15:09.870Z,0.00
2023-06-02T02:16:09.866Z,0.00
2023-06-02T02:17:09.844Z,0.00
2023-06-02T02:18:09.857Z,0.00
2023-06-02T02:19:09.827Z,0.00
2023-06-02T02:20:09.834Z,0.00
2023-06-02T02:21:09.812Z,0.00
2023-06-02T02:22:09.841Z,0.00
2023-06-02T02:23:09.835Z,0.00
2023-06-02T02:24:09.806Z,0.00
2023-06-02T02:25:09.782Z,0.00
2023-06-02T02:26:09.781Z,0.00
2023-06-02T02:27:09.786Z,0.00
2023-06-02T02:28:09.749Z,0.00
2023-06-02T02:29:09.745Z,0.00
2023-06-02T02:30:09.749Z,0.00
2023-06-02T02:31:09.775Z,0.00
2023-06-02T02:32:09.745Z,0.00
2023-06-02T02:33:09.774Z,0.00
2023-06-02T02:34:09.706Z,0.00
2023-06-02T02:35:09.698Z,0.00
2023-06-02T02:36:09.777Z,0.00
2023-06-02T02:37:09.709Z,0.00
2023-06-02T02:38:09.676Z,0.00
2023-06-02T02:39:09.664Z,0.00
2023-06-02T02:40:09.658Z,4.00
2023-06-02T02:41:09.673Z,4.00
2023-06-02T02:42:09.648Z,4.00
2023-06-02T02:43:09.645Z,0.00
2023-06-02T02:44:09.623Z,4.00
2023-06-02T02:45:09.761Z,4.00
2023-06-02T02:46:09.663Z,4.00
2023-06-02T02:47:09.611Z,4.00
2023-06-02T02:48:09.609Z,4.00
2023-06-02T02:49:09.586Z,8.00
2023-06-02T02:50:09.613Z,8.00
2023-06-02T02:51:09.600Z,4.00
2023-06-02T02:52:09.564Z,4.00
2023-06-02T02:53:09.558Z,8.00
2023-06-02T02:54:09.556Z,8.00
2023-06-02T02:55:09.562Z,12.00
2023-06-02T02:56:09.539Z,12.00
2023-06-02T02:57:09.532Z,12.00
2023-06-02T02:58:09.524Z,16.00
2023-06-02T02:59:09.533Z,20.00
2023-06-02T03:00:09.537Z,20.00
2023-06-02T03:01:09.529Z,24.00
2023-06-02T03:02:09.497Z,28.00
2023-06-02T03:03:09.483Z,32.00
2023-06-02T03:04:09.540Z,36.00
2023-06-02T03:05:09.486Z,40.00
2023-06-02T03:06:09.459Z,40.00
2023-06-02T03:07:11.421Z,40.00
2023-06-02T03:08:09.447Z,48.00
2023-06-02T03:09:09.468Z,48.00
2023-06-02T03:10:09.440Z,56.00
2023-06-02T03:11:09.419Z,60.00
2023-06-02T03:12:09.442Z,60.00
2023-06-02T03:13:09.401Z,68.00
2023-06-02T03:14:09.419Z,72.00
2023-06-02T03:15:09.387Z,76.00
2023-06-02T03:16:09.392Z,84.00
2023-06-02T03:17:09.497Z,88.00
2023-06-02T03:18:09.413Z,96.00
2023-06-02T03:19:09.383Z,104.00
2023-06-02T03:20:09.410Z,112.00
2023-06-02T03:21:09.385Z,120.00
2023-06-02T03:22:09.416Z,120.00
2023-06-02T03:23:09.374Z,128.00
2023-06-02T03:24:09.313Z,136.00
2023-06-02T03:25:09.308Z,144.00
2023-06-02T03:26:09.299Z,160.00
2023-06-02T03:27:09.289Z,168.00
2023-06-02T03:28:09.319Z,176.00
2023-06-02T03:29:09.285Z,192.00
2023-06-02T03:30:09.277Z,204.00
2023-06-02T03:31:09.287Z,220.00
2023-06-02T03:32:09.285Z,240.00
2023-06-02T03:33:09.365Z,264.00
2023-06-02T03:34:09.242Z,288.00
2023-06-02T03:35:09.240Z,320.00
2023-06-02T03:36:09.286Z,352.00
2023-06-02T03:37:09.271Z,412.00
2023-06-02T03:38:09.218Z,428.00
2023-06-02T03:39:09.249Z,436.00
2023-06-02T03:40:09.209Z,480.00
2023-06-02T03:41:09.192Z,548.00
2023-06-02T03:42:09.210Z,732.00
2023-06-02T03:43:09.185Z,680.00
2023-06-02T03:44:09.175Z,988.00
2023-06-02T03:45:09.161Z,1440.00
2023-06-02T03:46:09.183Z,1728.00
2023-06-02T03:47:09.170Z,1852.00
2023-06-02T03:48:09.150Z,1968.00
2023-06-02T03:49:09.135Z,2000.00
2023-06-02T03:50:09.129Z,2052.00
2023-06-02T03:51:10.588Z,2020.00
2023-06-02T03:52:10.110Z,1708.00
2023-06-02T03:53:09.110Z,2128.00
2023-06-02T03:54:09.093Z,1696.00
2023-06-02T03:55:09.090Z,1772.00
2023-06-02T03:56:09.105Z,1816.00
2023-06-02T03:57:09.081Z,1572.00
2023-06-02T03:58:09.067Z,1120.00
2023-06-02T03:59:09.063Z,1092.00
2023-06-02T04:00:09.081Z,1108.00
2023-06-02T04:01:09.075Z,1116.00
2023-06-02T04:02:09.110Z,1148.00
2023-06-02T04:03:09.066Z,1188.00
2023-06-02T04:04:09.143Z,1220.00
2023-06-02T04:05:09.088Z,1248.00
2023-06-02T04:06:09.031Z,1272.00
2023-06-02T04:07:08.988Z,1300.00
2023-06-02T04:08:08.988Z,1336.00
2023-06-02T04:09:08.983Z,1344.00
2023-06-02T04:10:09.006Z,1372.00
2023-06-02T04:11:08.964Z,1428.00
2023-06-02T04:12:08.963Z,1472.00
2023-06-02T04:13:08.953Z,1520.00
2023-06-02T04:14:08.963Z,1556.00
2023-06-02T04:15:08.960Z,1592.00
2023-06-02T04:16:08.961Z,1612.00
2023-06-02T04:17:08.927Z,1632.00
2023-06-02T04:18:08.909Z,1656.00
2023-06-02T04:19:08.927Z,1688.00
2023-06-02T04:20:08.897Z,1728.00
2023-06-02T04:21:08.888Z,1772.00
2023-06-02T04:22:08.904Z,1796.00
2023-06-02T04:23:08.872Z,1828.00
2023-06-02T04:24:08.892Z,1904.00
2023-06-02T04:25:08.878Z,2000.00
2023-06-02T04:26:11.133Z,2092.00
2023-06-02T04:27:09.848Z,2152.00
2023-06-02T04:28:08.863Z,2128.00
2023-06-02T04:29:08.853Z,2088.00
2023-06-02T04:30:08.821Z,2048.00
2023-06-02T04:31:08.806Z,2036.00
2023-06-02T04:32:08.920Z,2056.00
2023-06-02T04:33:08.860Z,2084.00
2023-06-02T04:34:08.794Z,2088.00
2023-06-02T04:35:08.781Z,2088.00
2023-06-02T04:36:08.808Z,2096.00
2023-06-02T04:37:08.786Z,2096.00
2023-06-02T04:38:08.778Z,2128.00
2023-06-02T04:39:08.752Z,2164.00
2023-06-02T04:40:08.736Z,2200.00
2023-06-02T04:41:08.750Z,2228.00
2023-06-02T04:42:08.720Z,2268.00
2023-06-02T04:43:08.744Z,2296.00
2023-06-02T04:44:08.702Z,2340.00
2023-06-02T04:45:08.696Z,2412.00
2023-06-02T04:46:08.706Z,2496.00
2023-06-02T04:47:08.707Z,2576.00
2023-06-02T04:48:08.707Z,2624.00
2023-06-02T04:49:08.686Z,2676.00
2023-06-02T04:50:08.659Z,2748.00
2023-06-02T04:51:08.666Z,2808.00
2023-06-02T04:52:08.676Z,2832.00
2023-06-02T04:53:08.639Z,2852.00
2023-06-02T04:54:08.629Z,2868.00
2023-06-02T04:55:08.622Z,2928.00
2023-06-02T04:56:08.618Z,3016.00
2023-06-02T04:57:08.662Z,3132.00
2023-06-02T04:58:08.606Z,3272.00
2023-06-02T04:59:08.595Z,3444.00
2023-06-02T05:00:08.578Z,3640.00
2023-06-02T05:01:08.598Z,3788.00
2023-06-02T05:02:08.645Z,3920.00
2023-06-02T05:03:08.570Z,4124.00
2023-06-02T05:04:08.562Z,4216.00
2023-06-02T05:05:08.553Z,4268.00
2023-06-02T05:06:08.800Z,4312.00
2023-06-02T05:07:08.574Z,4336.00
2023-06-02T05:08:08.547Z,4340.00
2023-06-02T05:09:08.525Z,4368.00
2023-06-02T05:10:08.496Z,4392.00
2023-06-02T05:11:08.525Z,4452.00
2023-06-02T05:12:08.493Z,4544.00
2023-06-02T05:13:08.495Z,4664.00
2023-06-02T05:14:08.482Z,4668.00
2023-06-02T05:15:08.468Z,4668.00
2023-06-02T05:16:08.520Z,4672.00
2023-06-02T05:17:08.456Z,4672.00
2023-06-02T05:18:08.504Z,4736.00
2023-06-02T05:19:08.431Z,4872.00
2023-06-02T05:20:08.494Z,4972.00
2023-06-02T05:21:08.453Z,5068.00
2023-06-02T05:22:08.414Z,5228.00
2023-06-02T05:23:08.407Z,5384.00
2023-06-02T05:24:08.392Z,5540.00
2023-06-02T05:25:11.142Z,5512.00
2023-06-02T05:26:08.377Z,5440.00
2023-06-02T05:27:08.371Z,5408.00
2023-06-02T05:28:08.360Z,5300.00
2023-06-02T05:29:08.353Z,5308.00
2023-06-02T05:30:08.385Z,5360.00
2023-06-02T05:31:08.350Z,5428.00
2023-06-02T05:32:08.331Z,5444.00
2023-06-02T05:33:08.326Z,5360.00
2023-06-02T05:34:08.337Z,5412.00
2023-06-02T05:35:08.329Z,5664.00
2023-06-02T05:36:08.305Z,6100.00
2023-06-02T05:37:08.293Z,6492.00
2023-06-02T05:38:08.289Z,6936.00
2023-06-02T05:39:08.310Z,6976.00
2023-06-02T05:40:08.273Z,6996.00
2023-06-02T05:41:08.267Z,7204.00
2023-06-02T05:42:08.256Z,7376.00
2023-06-02T05:43:08.257Z,7168.00
2023-06-02T05:44:08.260Z,7004.00
2023-06-02T05:45:08.237Z,6860.00
2023-06-02T05:46:08.462Z,6464.00
2023-06-02T05:47:08.214Z,6536.00
2023-06-02T05:48:08.278Z,6756.00
2023-06-02T05:49:08.222Z,7024.00
2023-06-02T05:50:09.132Z,7308.00
2023-06-02T05:51:08.187Z,7528.00
2023-06-02T05:52:08.176Z,7456.00
2023-06-02T05:53:09.200Z,7488.00
2023-06-02T05:54:08.165Z,7668.00
2023-06-02T05:55:08.153Z,8240.00
2023-06-02T05:56:08.158Z,8868.00
2023-06-02T05:57:08.147Z,9116.00
2023-06-02T05:58:08.171Z,9164.00
2023-06-02T05:59:08.129Z,9232.00
2023-06-02T06:00:08.126Z,9628.00
2023-06-02T06:01:08.116Z,10360.00
2023-06-02T06:02:08.128Z,11212.00
2023-06-02T06:03:08.321Z,11988.00
2023-06-02T06:04:08.121Z,12148.00
2023-06-02T06:05:08.082Z,11780.00
2023-06-02T06:06:08.073Z,11056.00
2023-06-02T06:07:08.101Z,10716.00
2023-06-02T06:08:08.095Z,10696.00
2023-06-02T06:09:08.050Z,10796.00
2023-06-02T06:10:08.048Z,10912.00
2023-06-02T06:11:08.057Z,10836.00
2023-06-02T06:12:08.048Z,10940.00
2023-06-02T06:13:08.011Z,11184.00
2023-06-02T06:14:08.004Z,11492.00
2023-06-02T06:15:07.997Z,11616.00
2023-06-02T06:16:08.086Z,11660.00
2023-06-02T06:17:08.016Z,11900.00
2023-06-02T06:18:08.014Z,12176.00
2023-06-02T06:19:07.975Z,12568.00
2023-06-02T06:20:07.968Z,13312.00
2023-06-02T06:21:07.979Z,13808.00
2023-06-02T06:22:08.083Z,14416.00
2023-06-02T06:23:07.948Z,14580.00
2023-06-02T06:24:07.949Z,14588.00
2023-06-02T06:25:07.922Z,13700.00
2023-06-02T06:26:07.969Z,12644.00
2023-06-02T06:27:10.335Z,11712.00
2023-06-02T06:28:07.912Z,11040.00
2023-06-02T06:29:07.900Z,11032.00
2023-06-02T06:30:07.886Z,11120.00
2023-06-02T06:31:07.940Z,11444.00
2023-06-02T06:32:07.891Z,12096.00
2023-06-02T06:33:07.871Z,13096.00
2023-06-02T06:34:07.862Z,13544.00
2023-06-02T06:35:07.877Z,13756.00
2023-06-02T06:36:07.864Z,13952.00
2023-06-02T06:37:07.838Z,15712.00
2023-06-02T06:38:07.831Z,15068.00
2023-06-02T06:39:07.825Z,14912.00
2023-06-02T06:40:07.838Z,15244.00
2023-06-02T06:41:07.808Z,17760.00
2023-06-02T06:42:07.799Z,22880.00
2023-06-02T06:43:23.030Z,18560.00
2023-06-02T06:44:09.799Z,67488.00
2023-06-02T06:45:07.821Z,29536.00
2023-06-02T06:46:07.773Z,21728.00
2023-06-02T06:47:07.770Z,43584.00
2023-06-02T06:48:07.902Z,38304.00
2023-06-02T06:49:07.775Z,73344.00
2023-06-02T06:50:07.766Z,35712.00
2023-06-02T06:51:07.722Z,69056.00
2023-06-02T06:52:07.728Z,62080.00
2023-06-02T06:53:07.721Z,71296.00
2023-06-02T06:54:08.654Z,72736.00
2023-06-02T06:55:08.695Z,24896.00
2023-06-02T06:56:07.711Z,29408.00
2023-06-02T06:57:07.690Z,27776.00
2023-06-02T06:58:07.677Z,31872.00
2023-06-02T06:59:07.702Z,76416.00
2023-06-02T07:00:07.657Z,23296.00
2023-06-02T07:01:07.651Z,51008.00
2023-06-02T07:02:07.808Z,45600.00
2023-06-02T07:03:07.773Z,25728.00
2023-06-02T07:04:07.732Z,81152.00
2023-06-02T07:05:07.626Z,80256.00
2023-06-02T07:06:07.616Z,79936.00
2023-06-02T07:07:07.610Z,78432.00
2023-06-02T07:08:07.629Z,23616.00
2023-06-02T07:09:07.616Z,26752.00
2023-06-02T07:10:07.583Z,22592.00
2023-06-02T07:11:07.582Z,21408.00
2023-06-02T07:12:07.577Z,18048.00
2023-06-02T07:13:07.589Z,15828.00
2023-06-02T07:14:16.262Z,14432.00
2023-06-02T07:15:09.547Z,13260.00
2023-06-02T07:16:07.550Z,12564.00
2023-06-02T07:17:07.553Z,11744.00
2023-06-02T07:18:07.661Z,11112.00
2023-06-02T07:19:07.519Z,10804.00
2023-06-02T07:20:07.513Z,10716.00
2023-06-02T07:21:07.499Z,10820.00
2023-06-02T07:22:07.609Z,10996.00
2023-06-02T07:23:07.491Z,11180.00
2023-06-02T07:24:07.492Z,11380.00
2023-06-02T07:25:07.479Z,11540.00
2023-06-02T07:26:07.471Z,11576.00
2023-06-02T07:27:07.485Z,11632.00
2023-06-02T07:28:07.448Z,11884.00
2023-06-02T07:29:07.450Z,12452.00
2023-06-02T07:30:07.445Z,13048.00
2023-06-02T07:31:10.977Z,13308.00
2023-06-02T07:32:08.561Z,13744.00
2023-06-02T07:33:07.421Z,14048.00
2023-06-02T07:34:07.400Z,13968.00
2023-06-02T07:35:07.395Z,13952.00
2023-06-02T07:36:07.445Z,13848.00
2023-06-02T07:37:07.374Z,13940.00
2023-06-02T07:38:07.367Z,14524.00
2023-06-02T07:39:07.362Z,15364.00
2023-06-02T07:40:07.351Z,16768.00
2023-06-02T07:41:07.368Z,17600.00
2023-06-02T07:42:07.332Z,18400.00
2023-06-02T07:43:07.325Z,18784.00
2023-06-02T07:44:07.322Z,18624.00
2023-06-02T07:45:07.332Z,18560.00
2023-06-02T07:46:07.655Z,18688.00
2023-06-02T07:47:07.352Z,18144.00
2023-06-02T07:48:07.302Z,17120.00
2023-06-02T07:49:07.270Z,16928.00
2023-06-02T07:50:08.296Z,17024.00
2023-06-02T07:51:07.268Z,17184.00
2023-06-02T07:52:08.272Z,16768.00
2023-06-02T07:53:07.254Z,16320.00
2023-06-02T07:54:07.253Z,16864.00
2023-06-02T07:55:07.262Z,17728.00
2023-06-02T07:56:07.584Z,18688.00
2023-06-02T07:57:08.221Z,19648.00
2023-06-02T07:58:07.210Z,20384.00
2023-06-02T07:59:07.198Z,21312.00
2023-06-02T08:00:07.215Z,21408.00
2023-06-02T08:01:07.486Z,21504.00
2023-06-02T08:02:07.197Z,22144.00
2023-06-02T08:03:07.319Z,24992.00
2023-06-02T08:04:07.414Z,31040.00
2023-06-02T08:05:07.200Z,23648.00
2023-06-02T08:06:07.152Z,27936.00
2023-06-02T08:07:07.146Z,54080.00
2023-06-02T08:08:07.929Z,40224.00
2023-06-02T08:09:07.153Z,82336.00
2023-06-02T08:10:07.145Z,61792.00
2023-06-02T08:11:07.111Z,68960.00
2023-06-02T08:12:07.094Z,71744.00
2023-06-02T08:13:07.090Z,77952.00
2023-06-02T08:14:07.100Z,82176.00
2023-06-02T08:15:07.088Z,84128.00
2023-06-02T08:17:08.058Z,82816.00
2023-06-02T08:18:07.158Z,69920.00
2023-06-02T08:19:07.236Z,58336.00
2023-06-02T08:20:07.036Z,44192.00
2023-06-02T08:21:07.024Z,69920.00
2023-06-02T08:22:07.116Z,68096.00
2023-06-02T08:23:07.047Z,64544.00
2023-06-02T08:24:07.007Z,64352.00
2023-06-02T08:25:06.990Z,50208.00
2023-06-02T08:26:06.985Z,43744.00
2023-06-02T08:27:06.974Z,42720.00
2023-06-02T08:28:06.989Z,42464.00
2023-06-02T08:29:06.958Z,41408.00
2023-06-02T08:30:06.947Z,40032.00
2023-06-02T08:31:06.993Z,38464.00
2023-06-02T08:32:08.072Z,23072.00
2023-06-02T08:33:07.010Z,18816.00
2023-06-02T08:34:06.929Z,18336.00
2023-06-02T08:35:06.927Z,18368.00
2023-06-02T08:36:06.960Z,19936.00
2023-06-02T08:37:06.927Z,36672.00
2023-06-02T08:38:06.913Z,36064.00
2023-06-02T08:39:06.879Z,35808.00
2023-06-02T08:40:06.967Z,35200.00
2023-06-02T08:41:07.065Z,34656.00
2023-06-02T08:42:06.881Z,25216.00
2023-06-02T08:43:06.860Z,21408.00
2023-06-02T08:44:06.862Z,30144.00
2023-06-02T08:45:06.834Z,35136.00
2023-06-02T08:46:06.883Z,27520.00
2023-06-02T08:47:06.843Z,26272.00
2023-06-02T08:48:06.839Z,24896.00
2023-06-02T08:49:06.804Z,29344.00
2023-06-02T08:50:06.806Z,22880.00
2023-06-02T08:51:06.788Z,22400.00
2023-06-02T08:52:06.806Z,23136.00
2023-06-02T08:53:06.768Z,25984.00
2023-06-02T08:54:06.761Z,27808.00
2023-06-02T08:55:06.801Z,19488.00
2023-06-02T08:56:07.043Z,18784.00
2023-06-02T08:57:06.774Z,19296.00
2023-06-02T08:58:06.737Z,28224.00
2023-06-02T08:59:06.732Z,29600.00
2023-06-02T09:00:06.729Z,19456.00
2023-06-02T09:01:06.739Z,18464.00
2023-06-02T09:02:06.716Z,18656.00
2023-06-02T09:03:06.730Z,28736.00
2023-06-02T09:04:08.464Z,29056.00
2023-06-02T09:05:07.764Z,29088.00
2023-06-02T09:06:06.920Z,28736.00
2023-06-02T09:07:06.674Z,28224.00
2023-06-02T09:08:06.668Z,27776.00
2023-06-02T09:09:06.655Z,27360.00
2023-06-02T09:10:06.680Z,26560.00
2023-06-02T09:11:06.672Z,25792.00
2023-06-02T09:12:06.622Z,25824.00
2023-06-02T09:13:06.619Z,25728.00
2023-06-02T09:14:06.618Z,24128.00
2023-06-02T09:15:07.411Z,22208.00
2023-06-02T09:16:06.935Z,21376.00
2023-06-02T09:17:06.579Z,20704.00
2023-06-02T09:18:06.630Z,20096.00
2023-06-02T09:19:06.581Z,19424.00
2023-06-02T09:20:06.585Z,18688.00
2023-06-02T09:21:06.963Z,18080.00
2023-06-02T09:22:06.653Z,17664.00
2023-06-02T09:23:06.539Z,17376.00
2023-06-02T09:25:07.555Z,16928.00
2023-06-02T09:26:09.970Z,16684.00
2023-06-02T09:27:08.512Z,16508.00
2023-06-02T09:28:06.508Z,16240.00
2023-06-02T09:29:06.528Z,15940.00
2023-06-02T09:30:06.500Z,15872.00
2023-06-02T09:31:06.688Z,15952.00
2023-06-02T09:32:06.527Z,15888.00
2023-06-02T09:33:06.525Z,15544.00
2023-06-02T09:34:06.493Z,14572.00
2023-06-02T09:35:06.465Z,14264.00
2023-06-02T09:36:06.720Z,14280.00
2023-06-02T09:37:06.440Z,13540.00
2023-06-02T09:38:06.431Z,13268.00
2023-06-02T09:39:06.441Z,13232.00
2023-06-02T09:40:06.456Z,13152.00
2023-06-02T09:41:06.407Z,13056.00
2023-06-02T09:42:06.409Z,12896.00
2023-06-02T09:43:06.411Z,12804.00
2023-06-02T09:44:06.414Z,12748.00
2023-06-02T09:45:06.388Z,12696.00
2023-06-02T09:46:06.679Z,12748.00
2023-06-02T09:47:06.479Z,12716.00
2023-06-02T09:48:06.458Z,12740.00
2023-06-02T09:49:06.467Z,12780.00
2023-06-02T09:50:06.383Z,12704.00
2023-06-02T09:51:06.327Z,12572.00
2023-06-02T09:52:06.319Z,12444.00
2023-06-02T09:53:06.344Z,12388.00
2023-06-02T09:54:06.311Z,12392.00
2023-06-02T09:55:06.297Z,12352.00
2023-06-02T09:56:06.581Z,12300.00
2023-06-02T09:57:06.307Z,12180.00
2023-06-02T09:58:06.303Z,12156.00
2023-06-02T09:59:06.291Z,12100.00
2023-06-02T10:00:06.266Z,12020.00
2023-06-02T10:01:06.554Z,11956.00
2023-06-02T10:02:06.283Z,11876.00
2023-06-02T10:03:06.333Z,11852.00
2023-06-02T10:04:06.307Z,11788.00
2023-06-02T10:05:06.219Z,11800.00
2023-06-02T10:06:06.381Z,11736.00
2023-06-02T10:07:06.231Z,11712.00
2023-06-02T10:08:06.199Z,11828.00
2023-06-02T10:09:06.216Z,11784.00
2023-06-02T10:10:06.191Z,11792.00
2023-06-02T10:11:06.342Z,11624.00
2023-06-02T10:12:06.224Z,11420.00
2023-06-02T10:13:06.178Z,11256.00
2023-06-02T10:14:06.153Z,11168.00
2023-06-02T10:15:06.152Z,11092.00
2023-06-02T10:16:06.187Z,11016.00
2023-06-02T10:17:06.128Z,10948.00
2023-06-02T10:18:06.142Z,10892.00
2023-06-02T10:19:06.115Z,10828.00
2023-06-02T10:20:06.170Z,10792.00
2023-06-02T10:21:06.408Z,10808.00
2023-06-02T10:22:06.168Z,10760.00
2023-06-02T10:23:06.136Z,10704.00
2023-06-02T10:24:06.276Z,10588.00
2023-06-02T10:25:06.097Z,10620.00
2023-06-02T10:26:06.095Z,10620.00
2023-06-02T10:27:06.072Z,10576.00
2023-06-02T10:28:06.052Z,10556.00
2023-06-02T10:29:06.035Z,10536.00
2023-06-02T10:30:07.066Z,10492.00
2023-06-02T10:31:06.488Z,10400.00
2023-06-02T10:32:06.018Z,10344.00
2023-06-02T10:33:06.069Z,10300.00
2023-06-02T10:34:06.009Z,10276.00
2023-06-02T10:35:06.027Z,10208.00
2023-06-02T10:36:06.581Z,10152.00
2023-06-02T10:37:05.982Z,10068.00
2023-06-02T10:38:05.981Z,10008.00
2023-06-02T10:39:05.975Z,9920.00
2023-06-02T10:40:06.046Z,9868.00
2023-06-02T10:41:06.150Z,9828.00
2023-06-02T10:42:05.946Z,9804.00
2023-06-02T10:43:05.942Z,9776.00
2023-06-02T10:44:05.966Z,9756.00
2023-06-02T10:45:05.943Z,9716.00
2023-06-02T10:46:05.903Z,9700.00
2023-06-02T10:47:06.052Z,9652.00
2023-06-02T10:48:05.965Z,9620.00
2023-06-02T10:49:05.908Z,9600.00
2023-06-02T10:50:09.301Z,9564.00
2023-06-02T10:51:07.886Z,9528.00
2023-06-02T10:52:05.865Z,9496.00
2023-06-02T10:53:05.869Z,9476.00
2023-06-02T10:54:05.942Z,9464.00
2023-06-02T10:55:05.844Z,9420.00
2023-06-02T10:56:05.828Z,9424.00
2023-06-02T10:57:05.822Z,9400.00
2023-06-02T10:58:05.838Z,9368.00
2023-06-02T10:59:05.832Z,9336.00
2023-06-02T11:00:05.799Z,9304.00
2023-06-02T11:01:06.094Z,9300.00
2023-06-02T11:02:05.820Z,9240.00
2023-06-02T11:03:05.961Z,9196.00
2023-06-02T11:04:05.872Z,9180.00
2023-06-02T11:05:05.762Z,9148.00
2023-06-02T11:06:05.751Z,9128.00
2023-06-02T11:07:05.744Z,9124.00
2023-06-02T11:08:06.054Z,9092.00
2023-06-02T11:09:05.734Z,9056.00
2023-06-02T11:10:05.727Z,9020.00
2023-06-02T11:11:05.712Z,9000.00
2023-06-02T11:12:06.052Z,8992.00
2023-06-02T11:13:06.049Z,9008.00
2023-06-02T11:14:06.696Z,9024.00
2023-06-02T11:15:05.814Z,8996.00
2023-06-02T11:16:05.673Z,8968.00
2023-06-02T11:17:06.684Z,8940.00
2023-06-02T11:18:05.701Z,8928.00
2023-06-02T11:19:05.660Z,8876.00
2023-06-02T11:20:05.638Z,8860.00
2023-06-02T11:21:05.721Z,8836.00
2023-06-02T11:22:05.734Z,8816.00
2023-06-02T11:23:05.632Z,8756.00
2023-06-02T11:24:05.617Z,8752.00
2023-06-02T11:25:05.605Z,8704.00
2023-06-02T11:26:05.626Z,8700.00
2023-06-02T11:27:05.612Z,8700.00
2023-06-02T11:28:05.583Z,8696.00
2023-06-02T11:29:05.572Z,8692.00
2023-06-02T11:30:05.570Z,8680.00
2023-06-02T11:31:06.132Z,8628.00
2023-06-02T11:32:05.557Z,8612.00
2023-06-02T11:33:05.590Z,8616.00
2023-06-02T11:34:05.533Z,8520.00
2023-06-02T11:35:05.536Z,8564.00
2023-06-02T11:36:05.549Z,8584.00
2023-06-02T11:37:05.517Z,8576.00
2023-06-02T11:38:05.507Z,8600.00
2023-06-02T11:39:05.491Z,8596.00
2023-06-02T11:40:05.573Z,8588.00
2023-06-02T11:41:05.742Z,8612.00
2023-06-02T11:42:05.482Z,8624.00
2023-06-02T11:43:05.514Z,8572.00
2023-06-02T11:44:05.524Z,8596.00
2023-06-02T11:45:05.495Z,8564.00
2023-06-02T11:46:05.447Z,8504.00
2023-06-02T11:47:05.438Z,8500.00
2023-06-02T11:48:05.472Z,8504.00
2023-06-02T11:49:05.441Z,8548.00
2023-06-02T11:50:05.445Z,8576.00
2023-06-02T11:51:05.405Z,8596.00
2023-06-02T11:52:05.429Z,8608.00
2023-06-02T11:53:05.411Z,8656.00
2023-06-02T11:54:05.401Z,8660.00
2023-06-02T11:55:05.513Z,8672.00
2023-06-02T11:56:05.377Z,8708.00
2023-06-02T11:57:05.351Z,8772.00
2023-06-02T11:58:05.350Z,8868.00
2023-06-02T11:59:05.362Z,8928.00
2023-06-02T12:00:05.329Z,9012.00
2023-06-02T12:01:05.328Z,9108.00
2023-06-02T12:02:05.324Z,9216.00
2023-06-02T12:03:05.423Z,9296.00
2023-06-02T12:04:05.666Z,9296.00
2023-06-02T12:05:05.418Z,9272.00
2023-06-02T12:06:05.286Z,9320.00
2023-06-02T12:07:05.276Z,9164.00
2023-06-02T12:08:05.290Z,9084.00
2023-06-02T12:09:05.279Z,9148.00
2023-06-02T12:10:05.280Z,9148.00
2023-06-02T12:11:05.466Z,9288.00
2023-06-02T12:12:05.231Z,9360.00
2023-06-02T12:13:05.252Z,9468.00
2023-06-02T12:14:05.215Z,9676.00
2023-06-02T12:15:05.210Z,9816.00
2023-06-02T12:16:05.202Z,9948.00
2023-06-02T12:17:05.244Z,9924.00